Time;durP1;ratioP1;P1;durP2;ratioP2;P2;SDS_P1;SDS_P2;PMS_P1;PMS_P2;Temp;Humidity;BMP_temperature;BMP_pressure;BME280_temperature;BME280_humidity;BME280_pressure;Samples;Min_cycle;Max_cycle;Signal;HPM_P1;HPM_P2
2022/04/23 00:00:10;;;;;;;23.85;14.15;;;;;;;14.36;46.28;99249.31;4007282;29;20054;-59
2022/04/23 00:02:17;;;;;;;18.40;14.32;;;;;;;14.35;45.92;99251.06;4007407;29;20302;-58
2022/04/23 00:04:22;;;;;;;19.30;14.05;;;;;;;14.38;45.71;99247.53;4022643;29;20102;-58
2022/04/23 00:06:24;;;;;;;16.88;14.38;;;;;;;14.27;46.50;99246.00;4037908;29;20049;-59
2022/04/23 00:08:27;;;;;;;16.35;14.60;;;;;;;14.23;46.14;99244.34;4023422;29;20065;-59
2022/04/23 00:10:30;;;;;;;18.02;15.02;;;;;;;14.25;46.60;99253.03;4022380;29;20077;-59
2022/04/23 00:12:34;;;;;;;17.08;15.07;;;;;;;14.32;46.08;99246.78;4023685;29;20084;-58
2022/04/23 00:14:37;;;;;;;19.65;15.02;;;;;;;14.23;46.51;99240.88;4023597;29;20049;-60
2022/04/23 00:16:40;;;;;;;16.30;13.88;;;;;;;14.11;46.74;99244.59;4023193;29;20118;-59
2022/04/23 00:18:43;;;;;;;17.83;14.27;;;;;;;14.11;47.14;99249.81;4023448;29;20053;-60
2022/04/23 00:20:47;;;;;;;18.02;13.93;;;;;;;14.07;46.72;99251.63;4023505;29;20534;-60
2022/04/23 00:22:50;;;;;;;17.50;13.70;;;;;;;14.03;46.69;99244.75;4023584;29;20045;-60
2022/04/23 00:24:53;;;;;;;15.68;13.27;;;;;;;14.01;47.08;99243.06;4022104;29;20049;-60
2022/04/23 00:26:56;;;;;;;15.60;13.43;;;;;;;14.02;47.29;99244.75;4021939;29;20152;-60
2022/04/23 00:28:59;;;;;;;16.27;12.55;;;;;;;13.99;47.28;99250.03;4023376;29;20049;-60
2022/04/23 00:31:04;;;;;;;16.83;13.95;;;;;;;14.00;46.97;99252.63;4023628;29;20057;-60
2022/04/23 00:33:09;;;;;;;18.90;12.25;;;;;;;13.94;47.48;99251.03;4023354;29;20069;-60
2022/04/23 00:35:14;;;;;;;14.50;11.35;;;;;;;13.91;47.56;99244.97;4023195;29;20048;-60
2022/04/23 00:37:18;;;;;;;14.88;11.98;;;;;;;13.89;48.17;99250.22;4022881;29;20570;-60
2022/04/23 00:39:21;;;;;;;13.07;10.38;;;;;;;13.85;48.25;99258.16;4006685;29;20572;-60
2022/04/23 00:43:49;;;;;;;14.02;11.98;;;;;;;13.83;48.54;99254.69;4023223;29;20077;-60
2022/04/23 00:45:51;;;;;;;12.40;10.40;;;;;;;13.79;48.88;99259.97;4023242;29;20037;-60
2022/04/23 00:47:55;;;;;;;14.20;11.63;;;;;;;13.73;49.33;99254.88;4022973;29;20128;-60
2022/04/23 00:49:58;;;;;;;14.70;11.75;;;;;;;13.70;49.21;99259.31;4023106;29;20136;-60
2022/04/23 00:52:02;;;;;;;13.43;10.93;;;;;;;13.68;49.59;99261.06;4021853;29;20461;-60
2022/04/23 00:54:08;;;;;;;16.27;12.13;;;;;;;13.69;49.80;99255.81;4023004;29;20042;-60
2022/04/23 00:56:11;;;;;;;16.00;12.25;;;;;;;13.64;50.05;99255.06;4023108;29;20518;-60
2022/04/23 00:58:15;;;;;;;17.05;12.23;;;;;;;13.57;49.86;99259.50;4021591;29;20484;-60
2022/04/23 01:00:19;;;;;;;15.27;11.63;;;;;;;13.47;50.29;99263.16;4021849;29;20041;-60
2022/04/23 01:02:22;;;;;;;12.75;11.05;;;;;;;13.46;50.41;99265.81;4021543;29;20037;-60
2022/04/23 01:04:26;;;;;;;14.25;12.75;;;;;;;13.42;51.00;99275.44;4022945;29;20050;-60
2022/04/23 01:06:34;;;;;;;14.07;12.15;;;;;;;13.43;50.92;99261.50;4022688;29;20049;-59
2022/04/23 01:08:37;;;;;;;17.63;13.05;;;;;;;13.47;50.78;99268.38;4022768;29;20045;-59
2022/04/23 01:10:43;;;;;;;15.90;13.65;;;;;;;13.48;50.77;99267.50;4022761;29;20102;-59
2022/04/23 01:12:46;;;;;;;17.70;13.25;;;;;;;13.44;50.46;99263.22;4021628;29;20098;-59
2022/04/23 01:15:00;;;;;;;15.20;13.27;;;;;;;13.43;50.09;99267.59;4022668;29;20069;-59
2022/04/23 01:17:04;;;;;;;14.80;13.00;;;;;;;13.40;50.27;99258.94;4021264;29;20042;-59
2022/04/23 01:19:07;;;;;;;14.25;12.75;;;;;;;13.34;50.49;99259.91;4006160;29;20074;-59
2022/04/23 01:21:13;;;;;;;16.88;12.70;;;;;;;13.35;50.84;99260.78;4022661;29;20057;-59
2022/04/23 01:23:16;;;;;;;20.13;13.40;;;;;;;13.32;50.57;99269.47;4006128;29;20126;-59
2022/04/23 01:25:19;;;;;;;18.17;13.35;;;;;;;13.28;51.92;99267.78;4022451;29;20064;-59
2022/04/23 01:27:24;;;;;;;16.88;14.23;;;;;;;13.26;51.50;99269.59;4022296;29;20077;-63
2022/04/23 01:29:27;;;;;;;17.15;14.15;;;;;;;13.16;52.30;99266.25;4021214;29;20140;-59
2022/04/23 01:31:30;;;;;;;16.25;12.85;;;;;;;13.11;51.76;99265.44;4022450;29;20041;-58
2022/04/23 01:33:34;;;;;;;15.07;12.57;;;;;;;13.07;52.13;99258.56;4022371;29;20048;-58
2022/04/23 01:35:37;;;;;;;17.02;13.45;;;;;;;13.10;52.18;99269.81;4022350;29;20140;-58
2022/04/23 01:37:43;;;;;;;16.55;13.85;;;;;;;13.14;51.95;99265.44;4020814;29;20055;-58
2022/04/23 01:39:47;;;;;;;16.02;12.57;;;;;;;13.12;52.53;99271.53;4022295;29;20037;-58
2022/04/23 01:41:49;;;;;;;16.60;12.52;;;;;;;13.13;52.52;99262.81;4022321;29;20042;-59
2022/04/23 01:43:52;;;;;;;17.92;13.95;;;;;;;13.12;52.75;99259.34;4021061;29;20476;-59
2022/04/23 01:45:55;;;;;;;17.20;14.45;;;;;;;13.10;52.69;99263.75;4021048;29;20469;-58
2022/04/23 01:47:58;;;;;;;18.17;14.40;;;;;;;13.06;52.12;99262.06;4021854;29;20136;-58
2022/04/23 01:50:01;;;;;;;16.63;14.80;;;;;;;13.05;52.16;99265.53;4021058;29;20042;-58
2022/04/23 01:52:05;;;;;;;16.17;13.07;;;;;;;13.08;51.98;99255.94;4020972;29;20102;-59
2022/04/23 01:54:10;;;;;;;17.48;14.45;;;;;;;13.10;51.70;99258.53;4022202;29;20041;-58
2022/04/23 01:56:13;;;;;;;15.38;13.52;;;;;;;13.17;51.39;99260.16;4022070;29;20076;-59
2022/04/23 01:58:16;;;;;;;19.05;14.55;;;;;;;13.18;51.67;99261.84;4021815;29;20045;-59
2022/04/23 02:00:19;;;;;;;16.30;13.85;;;;;;;13.13;51.83;99263.69;4020880;29;20059;-59
2022/04/23 02:02:23;;;;;;;17.05;14.02;;;;;;;13.13;51.91;99262.81;4021981;29;20101;-60
2022/04/23 02:04:26;;;;;;;17.02;14.55;;;;;;;13.11;52.33;99262.84;4020726;29;20109;-66
2022/04/23 02:06:29;;;;;;;16.58;13.40;;;;;;;13.14;52.23;99260.22;4021794;29;20050;-59
2022/04/23 02:08:32;;;;;;;15.40;12.70;;;;;;;13.12;52.11;99261.09;4021733;29;20076;-59
2022/04/23 02:10:36;;;;;;;22.63;13.32;;;;;;;13.12;51.87;99256.75;4021877;29;20052;-59
2022/04/23 02:12:40;;;;;;;16.50;12.60;;;;;;;13.12;52.08;99253.28;4020608;29;20049;-59
2022/04/23 02:14:44;;;;;;;16.52;14.40;;;;;;;13.10;51.60;99248.09;4021338;29;20068;-60
2022/04/23 02:16:47;;;;;;;16.50;14.75;;;;;;;13.16;51.89;99249.75;4020121;29;20160;-60
2022/04/23 02:18:50;;;;;;;17.25;14.30;;;;;;;13.14;51.89;99246.28;4005222;29;20049;-59
2022/04/23 02:20:53;;;;;;;16.02;13.15;;;;;;;13.10;51.62;99240.25;4021781;29;20041;-59
2022/04/23 02:22:56;;;;;;;18.00;14.68;;;;;;;13.04;51.90;99245.53;4021727;29;20049;-59
2022/04/23 02:24:59;;;;;;;15.70;14.02;;;;;;;13.05;52.50;99245.56;4020461;29;20061;-60
2022/04/23 02:27:04;;;;;;;16.88;14.48;;;;;;;13.00;52.71;99243.91;4020099;29;20042;-60
2022/04/23 02:29:07;;;;;;;14.50;12.88;;;;;;;12.96;52.44;99240.47;4021650;29;20037;-59
2022/04/23 02:31:10;;;;;;;16.80;14.57;;;;;;;12.97;52.59;99239.59;4021541;29;20049;-60
2022/04/23 02:33:14;;;;;;;16.73;14.05;;;;;;;13.06;52.50;99242.03;4020481;29;20053;-60
2022/04/23 02:35:18;;;;;;;17.00;13.50;;;;;;;12.95;52.94;99233.50;4021557;29;20038;-59
2022/04/23 02:37:22;;;;;;;17.02;12.52;;;;;;;12.90;53.10;99241.41;4020118;29;20041;-59
2022/04/23 02:39:25;;;;;;;14.10;11.10;;;;;;;12.89;53.08;99244.91;4021438;29;20049;-60
2022/04/23 02:41:28;;;;;;;17.13;14.88;;;;;;;12.90;53.66;99240.56;4020466;29;20053;-59
2022/04/23 02:43:33;;;;;;;18.77;14.32;;;;;;;12.95;53.71;99236.13;4021560;29;20045;-60
2022/04/23 02:45:37;;;;;;;16.77;12.52;;;;;;;12.86;53.46;99234.50;4021429;29;20074;-60
2022/04/23 02:47:43;;;;;;;16.40;13.48;;;;;;;12.83;53.82;99244.13;4021172;29;20057;-59
2022/04/23 02:49:46;;;;;;;15.65;12.65;;;;;;;12.79;54.39;99242.44;4020202;29;20053;-60
2022/04/23 02:51:51;;;;;;;16.33;13.80;;;;;;;12.78;54.29;99246.81;4035662;29;20055;-60
2022/04/23 02:53:53;;;;;;;13.55;12.15;;;;;;;12.76;54.17;99243.34;4035715;29;20073;-60
2022/04/23 02:55:56;;;;;;;15.10;13.50;;;;;;;12.83;53.99;99244.13;4021366;29;20045;-60
2022/04/23 02:58:01;;;;;;;14.90;12.77;;;;;;;12.83;54.37;99246.75;4021120;29;20090;-60
2022/04/23 03:00:07;;;;;;;;;;;;;;;12.61;54.65;99240.97;4005308;29;20085;-60
2022/04/23 03:02:10;;;;;;;;;;;;;;;12.49;54.74;99242.84;4021794;29;19935;-59
2022/04/23 03:04:15;;;;;;;18.10;13.52;;;;;;;12.55;55.10;99250.59;4021396;29;19924;-60
2022/04/23 03:06:18;;;;;;;16.70;13.43;;;;;;;12.60;54.69;99247.94;4021389;29;20453;-60
2022/04/23 03:08:23;;;;;;;15.50;12.25;;;;;;;12.60;55.07;99241.84;4020996;29;20124;-60
2022/04/23 03:10:30;;;;;;;15.93;13.20;;;;;;;12.55;55.73;99254.94;4020024;29;20046;-59
2022/04/23 03:12:36;;;;;;;14.82;12.80;;;;;;;12.53;55.23;99252.38;4021302;29;20040;-59
2022/04/23 03:14:40;;;;;;;14.25;11.65;;;;;;;12.54;55.67;99253.22;4021254;29;20046;-59
2022/04/23 03:16:44;;;;;;;15.25;12.63;;;;;;;12.52;55.48;99250.63;4020884;29;20042;-59
2022/04/23 03:18:47;;;;;;;13.70;12.30;;;;;;;12.47;56.32;99247.25;4021297;29;20564;-60
2022/04/23 03:20:50;;;;;;;14.32;12.48;;;;;;;12.46;56.47;99255.94;4004724;29;20084;-59
2022/04/23 03:22:53;;;;;;;13.80;11.65;;;;;;;12.44;56.49;99256.84;4020067;29;20045;-60
2022/04/23 03:24:56;;;;;;;17.92;12.23;;;;;;;12.39;57.21;99255.13;4019964;29;20046;-60
2022/04/23 03:26:59;;;;;;;15.52;13.85;;;;;;;12.33;56.69;99259.59;4023648;29;20037;-59
2022/04/23 03:29:03;;;;;;;15.88;13.27;;;;;;;12.24;56.51;99257.94;4022978;29;20065;-59
2022/04/23 03:31:06;;;;;;;16.85;13.80;;;;;;;12.19;56.65;99252.81;4024214;29;20132;-59
2022/04/23 03:33:10;;;;;;;15.65;13.68;;;;;;;12.24;56.43;99260.56;4024184;29;20053;-59
2022/04/23 03:35:13;;;;;;;25.05;13.63;;;;;;;12.23;56.82;99264.88;4022941;29;20045;-59
2022/04/23 03:37:17;;;;;;;16.20;13.45;;;;;;;12.27;56.57;99270.09;4023664;29;20048;-59
2022/04/23 03:39:20;;;;;;;15.88;13.40;;;;;;;12.27;56.31;99262.28;4023963;29;20133;-60
2022/04/23 03:41:23;;;;;;;15.25;12.77;;;;;;;12.27;56.78;99260.53;4024046;29;20128;-60
2022/04/23 03:43:26;;;;;;;15.90;12.48;;;;;;;12.25;57.01;99266.63;4022783;29;20085;-60
2022/04/23 03:45:31;;;;;;;17.25;14.27;;;;;;;12.19;56.95;99263.22;4022896;29;20050;-59
2022/04/23 03:47:34;;;;;;;13.52;11.13;;;;;;;12.16;57.21;99262.38;4023833;29;20105;-60
2022/04/23 03:49:38;;;;;;;13.75;11.95;;;;;;;12.13;57.37;99272.84;4023990;29;20045;-59
2022/04/23 03:51:41;;;;;;;15.98;14.23;;;;;;;12.05;58.08;99270.34;4024075;29;20057;-61
2022/04/23 03:53:44;;;;;;;15.73;13.95;;;;;;;12.02;58.32;99265.16;4023938;29;20101;-60
2022/04/23 03:55:47;;;;;;;17.27;14.90;;;;;;;11.98;58.51;99263.47;4022569;29;20142;-59
2022/04/23 03:57:52;;;;;;;15.70;14.00;;;;;;;11.92;58.67;99272.16;4023650;29;20061;-60
2022/04/23 03:59:54;;;;;;;17.58;15.00;;;;;;;11.87;58.80;99261.81;4022630;29;20140;-60
2022/04/23 04:02:03;;;;;;;16.38;14.05;;;;;;;11.92;58.79;99266.09;4023890;29;20094;-60
2022/04/23 04:04:07;;;;;;;16.40;14.10;;;;;;;11.95;58.15;99268.72;4023857;29;20045;-59
2022/04/23 04:06:11;;;;;;;16.38;14.57;;;;;;;11.92;59.01;99263.50;4023828;29;20128;-59
2022/04/23 04:08:14;;;;;;;17.58;15.13;;;;;;;11.85;58.90;99273.09;4023450;29;20048;-59
2022/04/23 04:10:19;;;;;;;16.13;14.02;;;;;;;11.84;58.66;99267.06;4023685;29;20453;-59
2022/04/23 04:12:22;;;;;;;;;;;;;;;11.71;59.06;99270.66;4024127;29;20140;-60
2022/04/23 04:14:26;;;;;;;13.98;11.40;;;;;;;11.74;59.54;99261.94;4022437;29;19931;-59
2022/04/23 04:16:29;;;;;;;14.98;13.38;;;;;;;11.76;58.75;99274.06;4037552;29;20089;-60
2022/04/23 04:18:32;;;;;;;17.00;14.45;;;;;;;11.77;59.80;99265.38;4023298;29;20045;-60
2022/04/23 04:20:35;;;;;;;16.25;14.52;;;;;;;11.77;60.07;99269.72;4023783;29;20373;-59
2022/04/23 04:22:40;;;;;;;17.02;14.50;;;;;;;11.68;60.05;99270.66;4023499;29;20045;-59
2022/04/23 04:24:43;;;;;;;14.70;12.45;;;;;;;11.62;60.60;99269.00;4023692;29;20056;-59
2022/04/23 04:26:47;;;;;;;17.17;14.25;;;;;;;11.62;60.34;99270.72;4023136;29;20045;-59
2022/04/23 04:28:50;;;;;;;16.98;13.65;;;;;;;11.65;59.86;99263.75;4023373;29;20049;-59
2022/04/23 04:33:13;;;;;;;15.25;13.25;;;;;;;11.63;60.44;99264.66;4023348;29;20097;-59
2022/04/23 04:35:16;;;;;;;18.02;14.38;;;;;;;11.65;59.59;99262.88;4023283;29;20045;-59
2022/04/23 04:37:19;;;;;;;17.75;15.38;;;;;;;11.68;60.64;99266.34;4021137;29;20109;-60
2022/04/23 04:39:23;;;;;;;17.88;14.40;;;;;;;11.73;59.37;99268.88;4023361;29;20415;-59
2022/04/23 04:41:29;;;;;;;18.05;14.95;;;;;;;11.65;60.27;99261.16;4023252;29;20063;-59
2022/04/23 04:43:32;;;;;;;14.93;12.68;;;;;;;11.64;59.59;99269.00;4023241;29;20140;-59
2022/04/23 04:45:35;;;;;;;15.60;14.00;;;;;;;11.66;59.59;99265.47;4006673;29;20448;-59
2022/04/23 04:47:38;;;;;;;18.83;16.83;;;;;;;11.76;59.08;99270.59;4022902;29;20041;-60
2022/04/23 04:49:41;;;;;;;18.60;16.38;;;;;;;11.93;59.33;99265.22;4021993;29;20048;-60
2022/04/23 04:51:44;;;;;;;17.55;15.70;;;;;;;11.89;59.35;99269.59;4023102;29;20041;-59
2022/04/23 04:53:46;;;;;;;19.15;17.02;;;;;;;11.93;58.75;99265.22;4021894;29;20094;-59
2022/04/23 04:55:51;;;;;;;19.30;17.30;;;;;;;11.98;58.85;99266.06;4023011;29;20056;-64
2022/04/23 04:57:54;;;;;;;19.23;16.73;;;;;;;11.97;58.29;99272.16;4022505;29;20045;-60
2022/04/23 04:59:58;;;;;;;18.00;15.05;;;;;;;12.02;58.02;99265.16;4021791;29;20072;-59
2022/04/23 05:02:01;;;;;;;20.27;17.05;;;;;;;12.03;58.38;99267.75;4022936;29;20087;-59
2022/04/23 05:04:05;;;;;;;16.87;15.07;;;;;;;12.09;58.00;99274.63;4022926;29;20045;-59
2022/04/23 05:06:08;;;;;;;17.27;15.50;;;;;;;12.15;58.24;99277.16;4021632;29;20322;-59
2022/04/23 05:08:11;;;;;;;17.55;15.68;;;;;;;12.15;58.58;99276.28;4021494;29;20496;-60
2022/04/23 05:10:13;;;;;;;17.45;15.73;;;;;;;12.11;58.11;99283.28;4022812;29;20500;-59
2022/04/23 05:12:18;;;;;;;16.20;14.50;;;;;;;12.13;58.30;99291.94;4022811;29;20461;-59
2022/04/23 05:14:21;;;;;;;18.02;15.68;;;;;;;12.22;57.94;99293.56;4022688;29;20053;-59
2022/04/23 05:16:23;;;;;;;17.80;15.90;;;;;;;12.18;58.09;99287.53;4022596;29;20049;-60
2022/04/23 05:18:27;;;;;;;16.38;14.57;;;;;;;12.15;58.79;99290.19;4021127;29;20554;-59
2022/04/23 05:20:30;;;;;;;17.65;15.13;;;;;;;12.22;59.02;99290.97;4022668;29;20461;-60
2022/04/23 05:22:33;;;;;;;16.92;14.05;;;;;;;12.35;57.74;99289.09;4021449;29;20079;-59
2022/04/23 05:24:36;;;;;;;15.75;14.15;;;;;;;12.30;57.71;99280.47;4022630;29;20445;-59
2022/04/23 05:26:40;;;;;;;16.38;14.68;;;;;;;12.33;57.73;99288.25;4021014;29;20461;-59
2022/04/23 05:28:44;;;;;;;19.25;15.85;;;;;;;12.38;57.69;99278.63;4022598;29;20458;-59
2022/04/23 05:30:47;;;;;;;17.60;15.52;;;;;;;12.43;57.40;99287.25;4022573;29;20433;-60
2022/04/23 05:32:50;;;;;;;17.63;15.25;;;;;;;12.41;58.07;99281.19;4021332;29;20519;-59
2022/04/23 05:34:53;;;;;;;16.15;14.55;;;;;;;12.30;58.04;99286.53;4022371;29;20553;-59
2022/04/23 05:36:56;;;;;;;15.45;13.85;;;;;;;12.28;58.04;99290.03;4021924;29;20499;-59
2022/04/23 05:38:59;;;;;;;18.60;13.93;;;;;;;12.32;58.06;99286.53;4022236;29;20552;-60
2022/04/23 05:41:02;;;;;;;16.80;13.40;;;;;;;12.36;58.35;99293.44;4021135;29;20056;-60
2022/04/23 05:43:05;;;;;;;15.73;14.10;;;;;;;12.45;58.43;99301.13;4021204;29;20042;-59
2022/04/23 05:45:10;;;;;;;15.85;14.23;;;;;;;12.54;58.13;99306.25;4022300;29;20243;-59
2022/04/23 05:47:13;;;;;;;17.10;14.07;;;;;;;12.67;56.90;99303.47;4022281;29;20488;-60
2022/04/23 05:49:16;;;;;;;15.88;14.27;;;;;;;12.68;56.68;99300.00;4021361;29;20046;-59
2022/04/23 05:51:39;;;;;;;15.35;13.80;;;;;;;12.69;57.10;99305.19;4022154;29;20041;-59
2022/04/23 05:53:43;;;;;;;14.07;12.55;;;;;;;12.67;56.82;99313.91;4022057;29;20515;-59
2022/04/23 05:55:46;;;;;;;14.15;12.65;;;;;;;12.51;57.77;99318.44;4022034;29;20439;-60
2022/04/23 05:57:48;;;;;;;14.48;12.98;;;;;;;12.52;57.50;99315.81;4021696;29;20178;-59
2022/04/23 05:59:52;;;;;;;14.75;12.93;;;;;;;12.69;57.28;99314.75;4022132;29;20474;-59
2022/04/23 06:01:56;;;;;;;14.25;12.60;;;;;;;12.61;57.81;99324.41;4022059;29;20425;-59
2022/04/23 06:03:59;;;;;;;;;;;;;;;12.55;57.94;99325.34;4022419;29;20552;-59
2022/04/23 06:06:02;;;;;;;14.57;12.15;;;;;;;12.67;57.21;99326.94;4021991;29;20302;-59
2022/04/23 06:08:06;;;;;;;14.40;11.13;;;;;;;12.73;57.10;99321.63;4021653;29;20422;-59
2022/04/23 06:10:10;;;;;;;12.60;10.02;;;;;;;12.61;57.77;99332.22;4020649;29;20083;-59
2022/04/23 06:12:13;;;;;;;12.50;11.20;;;;;;;12.81;58.07;99329.38;4021956;29;20489;-59
2022/04/23 06:14:16;;;;;;;14.77;11.63;;;;;;;12.78;57.09;99330.28;4020643;29;20558;-59
2022/04/23 06:16:19;;;;;;;14.40;12.88;;;;;;;12.90;56.46;99330.09;4021843;29;20461;-59
2022/04/23 06:18:25;;;;;;;14.48;11.25;;;;;;;12.82;56.93;99329.34;4020343;29;20405;-59
2022/04/23 06:20:28;;;;;;;;;;;;;;;12.79;56.79;99331.13;4022259;29;20122;-59
2022/04/23 06:22:31;;;;;;;13.82;10.73;;;;;;;12.82;56.33;99325.88;4020555;29;19924;-59
2022/04/23 06:24:34;;;;;;;12.13;10.82;;;;;;;12.81;57.35;99327.63;4021736;29;20448;-59
2022/04/23 06:26:38;;;;;;;11.65;10.45;;;;;;;12.89;56.96;99333.59;4021531;29;20479;-59
2022/04/23 06:28:41;;;;;;;12.68;10.38;;;;;;;12.95;56.63;99326.56;4021726;29;20046;-59
2022/04/23 06:30:43;;;;;;;12.00;10.50;;;;;;;13.05;55.97;99330.78;4021766;29;20452;-59
2022/04/23 06:32:46;;;;;;;11.60;10.40;;;;;;;12.88;56.87;99331.03;4021685;29;20068;-59
2022/04/23 06:34:50;;;;;;;14.02;10.98;;;;;;;12.91;56.26;99338.81;4021656;29;20129;-59
2022/04/23 06:36:53;;;;;;;11.38;10.18;;;;;;;13.10;56.13;99339.41;4021332;29;20445;-59
2022/04/23 06:38:56;;;;;;;10.98;9.70;;;;;;;13.17;55.70;99348.88;4021427;29;20457;-59
2022/04/23 06:41:00;;;;;;;11.13;9.93;;;;;;;13.09;55.82;99340.28;4021517;29;20048;-59
2022/04/23 06:43:03;;;;;;;10.17;9.17;;;;;;;13.09;56.38;99342.91;4005121;29;20130;-59
2022/04/23 06:45:10;;;;;;;11.25;9.95;;;;;;;13.27;55.25;99339.16;4020446;29;20364;-59
2022/04/23 06:47:15;;;;;;;10.35;9.00;;;;;;;13.14;55.67;99343.72;4021253;29;20077;-59
2022/04/23 06:49:18;;;;;;;12.80;9.77;;;;;;;13.17;55.66;99341.06;4021543;29;20569;-59
2022/04/23 06:51:22;;;;;;;11.43;10.02;;;;;;;13.29;55.06;99345.22;4021513;29;20125;-59
2022/04/23 06:53:25;;;;;;;11.02;9.85;;;;;;;13.22;55.78;99341.84;4021530;29;20042;-60
2022/04/23 06:55:33;;;;;;;9.40;8.27;;;;;;;13.13;56.03;99336.75;4020182;29;20452;-59
2022/04/23 06:57:44;;;;;;;10.50;8.65;;;;;;;13.31;55.90;99339.97;4021301;29;20049;-59
2022/04/23 06:59:46;;;;;;;10.10;8.40;;;;;;;13.52;55.12;99339.69;4021214;29;20461;-59
2022/04/23 07:01:49;;;;;;;10.27;8.95;;;;;;;13.42;55.60;99344.19;4020230;29;20489;-59
2022/04/23 07:03:52;;;;;;;11.23;9.68;;;;;;;13.49;55.15;99342.34;4021377;29;20385;-59
2022/04/23 07:05:55;;;;;;;10.02;8.98;;;;;;;13.52;55.18;99339.69;4020236;29;20050;-59
2022/04/23 07:08:06;;;;;;;12.52;9.40;;;;;;;13.70;54.84;99348.97;4019877;29;20489;-59
2022/04/23 07:10:10;;;;;;;10.05;8.43;;;;;;;13.60;54.72;99344.78;4020092;29;20472;-59
2022/04/23 07:12:14;;;;;;;11.02;9.55;;;;;;;13.59;54.76;99341.31;4021362;29;20470;-59
2022/04/23 07:14:17;;;;;;;;;;;;;;;13.64;54.22;99342.97;4021802;29;20137;-59
2022/04/23 07:16:20;;;;;;;11.10;8.93;;;;;;;13.55;54.96;99350.06;4020153;29;19946;-60
2022/04/23 07:18:23;;;;;;;10.35;9.25;;;;;;;13.53;55.42;99344.00;4019805;29;20445;-59
2022/04/23 07:20:26;;;;;;;11.27;8.77;;;;;;;13.67;55.43;99340.28;4035524;29;20049;-59
2022/04/23 07:22:29;;;;;;;11.20;9.18;;;;;;;13.82;54.31;99339.19;4020050;29;20117;-59
2022/04/23 07:24:32;;;;;;;9.32;8.27;;;;;;;13.75;55.01;99344.50;4021204;29;20415;-59
2022/04/23 07:26:37;;;;;;;9.95;8.05;;;;;;;13.84;54.43;99343.50;4019694;29;20125;-59
2022/04/23 07:28:41;;;;;;;10.18;8.52;;;;;;;14.03;54.88;99343.16;4021240;29;20089;-59
2022/04/23 07:30:44;;;;;;;11.32;9.63;;;;;;;14.08;53.48;99341.34;4021082;29;20173;-59
2022/04/23 07:32:47;;;;;;;12.07;9.27;;;;;;;13.99;54.14;99344.13;4035339;29;20170;-59
2022/04/23 07:37:31;;;;;;;9.50;7.97;;;;;;;14.05;53.80;99341.41;4019518;29;20050;-59
2022/04/23 07:39:36;;;;;;;8.82;7.57;;;;;;;14.06;53.48;99346.63;4020886;29;20404;-59
2022/04/23 07:41:40;;;;;;;8.05;6.63;;;;;;;14.09;52.72;99343.94;4019837;29;20469;-59
2022/04/23 07:43:43;;;;;;;8.85;6.85;;;;;;;14.22;53.16;99344.59;4021052;29;20069;-59
2022/04/23 07:45:47;;;;;;;9.77;7.55;;;;;;;14.12;52.65;99345.66;4019747;29;20049;-59
2022/04/23 07:47:50;;;;;;;7.55;5.97;;;;;;;13.83;53.83;99347.00;4020627;29;20057;-59
2022/04/23 07:49:53;;;;;;;8.27;6.53;;;;;;;13.86;54.31;99338.25;4035170;29;20045;-59
2022/04/23 07:51:56;;;;;;;11.35;7.53;;;;;;;13.92;53.94;99336.38;4020990;29;20121;-59
2022/04/23 07:53:59;;;;;;;8.50;6.80;;;;;;;13.88;53.64;99353.00;4019575;29;20057;-59
2022/04/23 07:56:03;;;;;;;10.15;6.93;;;;;;;14.03;52.93;99341.44;4004469;29;20072;-59
2022/04/23 07:58:09;;;;;;;7.45;6.03;;;;;;;14.10;52.94;99347.41;4020534;29;20076;-59
2022/04/23 08:00:12;;;;;;;7.13;5.82;;;;;;;13.84;53.57;99348.72;4020969;29;20100;-59
2022/04/23 08:02:16;;;;;;;6.63;5.72;;;;;;;13.83;54.14;99347.00;4020960;29;20132;-59
2022/04/23 08:04:19;;;;;;;7.28;6.03;;;;;;;14.07;54.01;99350.94;4020961;29;20049;-59
2022/04/23 08:06:22;;;;;;;7.22;6.03;;;;;;;14.22;53.38;99341.97;4019501;29;20133;-61
2022/04/23 08:08:25;;;;;;;7.28;5.88;;;;;;;14.40;52.43;99342.50;4019403;29;20045;-59
2022/04/23 08:10:28;;;;;;;7.43;5.47;;;;;;;14.48;52.50;99333.63;4020820;29;20071;-59
2022/04/23 08:12:34;;;;;;;6.80;5.70;;;;;;;14.58;52.90;99342.13;4022872;29;20049;-59
2022/04/23 08:14:39;;;;;;;6.82;5.63;;;;;;;14.69;51.58;99325.38;4023575;29;20073;-59
2022/04/23 08:16:42;;;;;;;7.07;5.55;;;;;;;14.49;51.42;99332.69;4023284;29;20053;-60
2022/04/23 08:18:45;;;;;;;5.07;4.22;;;;;;;14.39;52.98;99332.94;4023575;29;20049;-64
2022/04/23 08:20:49;;;;;;;7.13;5.28;;;;;;;14.70;51.68;99322.72;4023601;29;20068;-60
2022/04/23 08:22:53;;;;;;;6.72;5.05;;;;;;;14.76;51.24;99327.84;4023649;29;20056;-63
2022/04/23 08:24:56;;;;;;;6.63;4.72;;;;;;;14.74;50.70;99339.22;4023543;29;20053;-60
2022/04/23 08:26:59;;;;;;;7.97;5.13;;;;;;;14.56;51.19;99338.69;4023293;29;20105;-60
2022/04/23 08:31:23;;;;;;;6.97;4.32;;;;;;;14.25;52.50;99339.28;4023467;29;20060;-60
2022/04/23 08:33:57;;;;;;;5.00;3.83;;;;;;;14.38;52.45;99341.66;4023415;29;20102;-59
2022/04/23 08:35:51;;;;;;;5.10;3.58;;;;;;;14.37;53.25;99339.91;4023346;29;20132;-59
2022/04/23 08:37:54;;;;;;;5.15;3.55;;;;;;;14.52;52.80;99342.25;4022950;29;20220;-60
2022/04/23 08:39:56;;;;;;;4.82;3.58;;;;;;;14.71;52.92;99340.16;4021964;29;20136;-59
2022/04/23 08:42:02;;;;;;;5.13;4.10;;;;;;;14.79;52.97;99333.00;4023248;29;20042;-60
2022/04/23 08:44:07;;;;;;;6.78;4.38;;;;;;;14.91;52.00;99333.63;4023282;29;20157;-60
2022/04/23 08:46:10;;;;;;;5.07;3.90;;;;;;;14.92;52.87;99341.47;4023535;29;20055;-60
2022/04/23 08:48:15;;;;;;;4.93;3.42;;;;;;;14.80;52.32;99333.88;4037024;29;20044;-59
2022/04/23 08:50:22;;;;;;;5.20;3.20;;;;;;;14.74;53.00;99337.47;4021857;29;20136;-60
2022/04/23 08:52:32;;;;;;;4.93;3.75;;;;;;;14.84;52.86;99338.16;4023119;29;20050;-59
2022/04/23 08:54:35;;;;;;;4.78;3.50;;;;;;;14.91;51.56;99339.75;4023176;29;20133;-60
2022/04/23 08:56:39;;;;;;;5.72;3.92;;;;;;;14.98;51.67;99337.81;4037092;29;20549;-59
2022/04/23 08:58:43;;;;;;;5.32;4.13;;;;;;;15.18;50.52;99334.78;4023130;29;20077;-59
2022/04/23 09:00:48;;;;;;;3.97;3.42;;;;;;;15.03;50.47;99340.38;4023035;29;20049;-59
2022/04/23 09:02:51;;;;;;;4.30;3.50;;;;;;;15.03;50.44;99340.38;4021867;29;20053;-60
2022/04/23 09:04:55;;;;;;;5.40;4.07;;;;;;;14.91;50.46;99344.09;4023074;29;20475;-59
2022/04/23 09:06:57;;;;;;;4.80;3.50;;;;;;;14.89;50.39;99341.50;4036908;29;20215;-59
2022/04/23 09:09:13;;;;;;;4.68;3.80;;;;;;;14.78;51.47;99344.38;4037048;29;20562;-59
2022/04/23 09:11:32;;;;;;;;;;;;;;;14.64;52.08;99346.41;4023319;29;20045;-59
2022/04/23 09:13:35;;;;;;;6.97;3.60;;;;;;;14.83;51.36;99345.16;4022869;29;19930;-60
2022/04/23 09:25:03;;;;;;;7.38;4.05;;;;;;;15.22;50.00;99346.91;4021481;29;20125;-60
2022/04/23 09:27:06;;;;;;;4.30;3.63;;;;;;;15.08;50.40;99334.09;4022248;29;20126;-59
2022/04/23 09:29:14;;;;;;;4.85;3.72;;;;;;;15.11;50.54;99341.91;4022778;29;20053;-60
2022/04/23 09:31:18;;;;;;;6.10;3.10;;;;;;;15.18;50.72;99340.00;4022709;29;20454;-59
2022/04/23 09:33:27;;;;;;;4.38;3.05;;;;;;;15.36;50.25;99338.72;4022573;29;20093;-60
2022/04/23 09:35:30;;;;;;;6.55;3.47;;;;;;;15.52;50.01;99339.22;4022458;29;20049;-60
2022/04/23 09:39:50;;;;;;;4.25;3.28;;;;;;;15.71;49.27;99343.13;4022025;29;20055;-60
2022/04/23 09:41:53;;;;;;;5.10;3.50;;;;;;;15.54;49.78;99338.28;4021187;29;20064;-60
2022/04/23 09:44:06;;;;;;;4.20;3.17;;;;;;;15.59;50.15;99339.94;4022383;29;20050;-60
2022/04/23 09:46:10;;;;;;;3.95;3.35;;;;;;;15.51;49.48;99343.59;4021216;29;20110;-60
2022/04/23 09:48:15;;;;;;;5.47;4.30;;;;;;;15.50;49.04;99339.25;4022080;29;20037;-60
2022/04/23 09:50:20;;;;;;;;;;;;;;;15.39;48.61;99346.53;4022695;29;20049;-60
2022/04/23 09:52:28;;;;;;;4.07;3.25;;;;;;;15.12;49.57;99348.00;4022285;29;19924;-60
2022/04/23 09:54:51;;;;;;;6.15;4.13;;;;;;;15.26;49.72;99343.31;4036447;29;20048;-60
2022/04/23 09:56:54;;;;;;;4.30;3.30;;;;;;;15.13;50.11;99342.75;4021832;29;20136;-59